Time;durP1;ratioP1;P1;durP2;ratioP2;P2;SDS_P1;SDS_P2;PMS_P1;PMS_P2;Temp;Humidity;BMP_temperature;BMP_pressure;BME280_temperature;BME280_humidity;BME280_pressure;Samples;Min_cycle;Max_cycle;Signal;HPM_P1;HPM_P2
2021/06/11 00:00:43;;;;;;;2.30;1.30;;;22.20;57.50;;;;;;5073487;28;20574;-79
2021/06/11 00:03:09;;;;;;;3.63;1.70;;;22.10;57.70;;;;;;5073431;28;20606;-79
2021/06/11 00:05:35;;;;;;;2.07;1.40;;;22.10;57.80;;;;;;5055769;28;20611;-79
2021/06/11 00:08:01;;;;;;;2.30;1.47;;;22.10;58.00;;;;;;5078157;28;20578;-79
2021/06/11 00:10:28;;;;;;;2.50;1.57;;;22.00;58.00;;;;;;5082263;28;20864;-79
2021/06/11 00:12:54;;;;;;;7.03;2.47;;;22.00;58.20;;;;;;5081430;28;20200;-79
2021/06/11 00:15:20;;;;;;;2.30;1.10;;;22.00;58.50;;;;;;5084061;28;20976;-79
2021/06/11 00:17:46;;;;;;;2.00;1.17;;;21.90;58.50;;;;;;5048637;28;20176;-78
2021/06/11 00:20:12;;;;;;;4.40;1.80;;;21.90;58.70;;;;;;5084791;28;20579;-79
2021/06/11 00:22:38;;;;;;;4.23;1.40;;;21.80;58.80;;;;;;5088140;28;20636;-78
2021/06/11 00:25:09;;;;;;;2.03;1.30;;;21.80;59.00;;;;;;5074729;28;20601;-78
2021/06/11 00:27:36;;;;;;;2.73;1.50;;;21.80;59.40;;;;;;5072964;28;20669;-77
2021/06/11 00:30:04;;;;;;;3.63;1.90;;;21.70;59.30;;;;;;5090630;28;20664;-78
2021/06/11 00:32:29;;;;;;;3.83;1.87;;;21.70;59.60;;;;;;5090632;28;20562;-78
2021/06/11 00:34:55;;;;;;;4.40;1.87;;;21.60;59.70;;;;;;5073192;28;20591;-78
2021/06/11 00:37:21;;;;;;;2.90;1.90;;;21.60;59.90;;;;;;5070794;28;20175;-80
2021/06/11 00:39:46;;;;;;;2.83;1.97;;;21.60;60.20;;;;;;5079042;28;20172;-78
2021/06/11 00:42:12;;;;;;;2.40;1.93;;;21.50;60.50;;;;;;5076196;28;20168;-78
2021/06/11 00:44:38;;;;;;;4.17;2.80;;;21.50;60.70;;;;;;5078764;28;20191;-77
2021/06/11 00:47:04;;;;;;;5.30;2.00;;;21.40;61.00;;;;;;5075146;28;20922;-78
2021/06/11 00:49:30;;;;;;;2.63;2.07;;;21.40;61.40;;;;;;5074798;28;20199;-78
2021/06/11 00:51:56;;;;;;;4.60;2.90;;;21.40;61.70;;;;;;5037749;28;20605;-78
2021/06/11 00:54:22;;;;;;;3.50;2.10;;;21.30;62.00;;;;;;5072673;28;20613;-79
2021/06/11 00:56:48;;;;;;;2.63;2.00;;;21.30;62.20;;;;;;5054453;28;20251;-79
2021/06/11 00:59:13;;;;;;;5.73;1.90;;;21.20;62.60;;;;;;5072310;28;20728;-79
2021/06/11 01:01:41;;;;;;;2.67;2.30;;;21.20;63.00;;;;;;5071958;28;20577;-79
2021/06/11 01:04:08;;;;;;;4.67;2.30;;;21.20;63.30;;;;;;5071399;28;20226;-79
2021/06/11 01:06:36;;;;;;;3.03;2.73;;;21.10;63.60;;;;;;5036763;28;20992;-79
2021/06/11 01:09:02;;;;;;;3.13;2.50;;;21.10;64.10;;;;;;5071837;28;20583;-79
2021/06/11 01:11:28;;;;;;;4.80;2.37;;;21.00;64.30;;;;;;5086870;28;20685;-79
2021/06/11 01:13:55;;;;;;;2.60;2.40;;;21.00;64.80;;;;;;5071779;28;20533;-79
2021/06/11 01:16:20;;;;;;;4.47;2.47;;;21.00;65.20;;;;;;5069023;28;20590;-80
2021/06/11 01:18:46;;;;;;;4.33;2.23;;;21.00;65.50;;;;;;5071362;28;20674;-79
2021/06/11 01:21:12;;;;;;;4.00;2.20;;;20.90;65.80;;;;;;5072050;28;20241;-80
2021/06/11 01:23:41;;;;;;;4.33;2.70;;;20.90;66.20;;;;;;5071503;28;20258;-80
2021/06/11 01:26:24;;;;;;;3.50;2.83;;;20.80;66.90;;;;;;5070823;28;20593;-79
2021/06/11 01:29:03;;;;;;;5.00;2.27;;;20.80;67.90;;;;;;5053627;28;20948;-78
2021/06/11 01:31:31;;;;;;;3.23;2.30;;;20.80;68.20;;;;;;5053835;28;20578;-79
2021/06/11 01:34:12;;;;;;;2.50;2.30;;;20.70;68.00;;;;;;5053581;28;20710;-79
2021/06/11 01:36:45;;;;;;;3.43;2.50;;;20.70;69.20;;;;;;5071368;28;21442;-79
2021/06/11 01:39:15;;;;;;;2.70;2.33;;;20.60;69.20;;;;;;5071434;28;21130;-79
2021/06/11 01:41:43;;;;;;;5.20;2.70;;;20.60;69.40;;;;;;5053719;28;20599;-79
2021/06/11 01:44:10;;;;;;;2.63;2.43;;;20.50;69.80;;;;;;5071448;28;21169;-79
2021/06/11 01:46:37;;;;;;;3.80;2.87;;;20.60;70.70;;;;;;5071332;28;20603;-78
2021/06/11 01:49:03;;;;;;;3.10;2.63;;;20.50;71.10;;;;;;5071488;28;20567;-79
2021/06/11 01:51:32;;;;;;;3.43;3.10;;;20.50;71.70;;;;;;5071430;28;20563;-78
2021/06/11 01:54:00;;;;;;;3.97;2.90;;;20.40;72.50;;;;;;5071339;28;21221;-79
2021/06/11 01:56:27;;;;;;;5.20;3.60;;;20.40;73.10;;;;;;5070877;28;20563;-79
2021/06/11 01:58:54;;;;;;;5.90;3.50;;;20.40;73.90;;;;;;5071315;28;20664;-79
2021/06/11 02:01:20;;;;;;;7.53;4.33;;;20.30;74.50;;;;;;5071206;28;20566;-78
2021/06/11 02:03:47;;;;;;;5.33;3.47;;;20.30;75.60;;;;;;5072910;28;20622;-79
2021/06/11 02:06:16;;;;;;;3.97;3.60;;;20.30;76.40;;;;;;5057236;28;20566;-79
2021/06/11 02:08:46;;;;;;;6.03;4.07;;;20.20;77.20;;;;;;5056885;28;21158;-78
2021/06/11 02:11:13;;;;;;;4.43;3.60;;;20.20;78.50;;;;;;5074932;28;20648;-79
2021/06/11 02:13:45;;;;;;;4.07;3.57;;;20.20;79.00;;;;;;5075018;28;20590;-79
2021/06/11 02:16:12;;;;;;;4.47;3.83;;;20.20;79.80;;;;;;5079535;28;20567;-79
2021/06/11 02:18:39;;;;;;;6.67;3.93;;;20.20;80.50;;;;;;5075065;28;20560;-79
2021/06/11 02:21:06;;;;;;;3.80;3.00;;;20.10;81.30;;;;;;5075682;28;20571;-80
2021/06/11 02:23:33;;;;;;;3.97;3.57;;;20.10;82.30;;;;;;5075198;28;20975;-78
2021/06/11 02:26:00;;;;;;;4.63;3.93;;;20.10;83.10;;;;;;5075002;28;20567;-78
2021/06/11 02:28:26;;;;;;;7.13;3.93;;;20.00;84.10;;;;;;5074310;28;20574;-77
2021/06/11 02:30:52;;;;;;;4.37;4.00;;;20.10;85.00;;;;;;5074316;28;20675;-77
2021/06/11 02:33:19;;;;;;;4.80;4.40;;;20.00;86.00;;;;;;5074426;28;20542;-78
2021/06/11 02:35:44;;;;;;;5.73;4.60;;;20.00;87.20;;;;;;5056545;28;20164;-78
2021/06/11 02:38:10;;;;;;;7.13;4.47;;;20.00;88.10;;;;;;5073946;28;20570;-78
2021/06/11 02:40:36;;;;;;;4.33;3.93;;;20.00;89.10;;;;;;5074014;28;20523;-78
2021/06/11 02:43:11;;;;;;;4.20;3.80;;;20.00;89.90;;;;;;5074049;28;20196;-78
2021/06/11 02:45:44;;;;;;;5.30;4.80;;;19.90;90.80;;;;;;5074290;28;20561;-78
2021/06/11 02:48:33;;;;;;;6.13;4.40;;;20.00;91.00;;;;;;5056030;28;20558;-78
2021/06/11 02:51:07;;;;;;;5.50;4.07;;;19.90;91.60;;;;;;5074091;28;20609;-78
2021/06/11 02:53:34;;;;;;;6.30;4.50;;;19.90;91.90;;;;;;5056170;28;21067;-78
2021/06/11 02:56:18;;;;;;;5.67;4.60;;;19.90;92.00;;;;;;5073895;28;20555;-78
2021/06/11 02:58:54;;;;;;;5.30;4.10;;;19.90;92.80;;;;;;5073524;28;21041;-78
2021/06/11 03:01:21;;;;;;;5.13;4.63;;;19.90;93.40;;;;;;5074030;28;20581;-78
2021/06/11 03:03:50;;;;;;;6.20;5.70;;;19.90;93.30;;;;;;5073629;28;21200;-77
2021/06/11 03:06:18;;;;;;;5.70;5.10;;;19.80;93.70;;;;;;5074056;28;20574;-78
2021/06/11 03:08:47;;;;;;;7.50;4.83;;;19.80;94.10;;;;;;5055795;28;20673;-78
2021/06/11 03:11:26;;;;;;;9.93;5.20;;;19.80;94.60;;;;;;5073665;28;20618;-78
2021/06/11 03:13:53;;;;;;;5.87;5.10;;;19.80;95.00;;;;;;5073576;28;20655;-78
2021/06/11 03:16:19;;;;;;;7.90;5.63;;;19.80;95.50;;;;;;5072879;28;20569;-78
2021/06/11 03:18:52;;;;;;;6.40;4.97;;;19.80;95.80;;;;;;5073497;28;20571;-78
2021/06/11 03:21:20;;;;;;;6.90;5.23;;;19.80;96.20;;;;;;5073568;28;20601;-78
2021/06/11 03:23:55;;;;;;;6.57;5.30;;;19.80;96.70;;;;;;5071926;28;20636;-79
2021/06/11 03:26:28;;;;;;;4.87;4.40;;;19.80;97.50;;;;;;5073160;28;20582;-79
2021/06/11 03:28:56;;;;;;;6.90;4.80;;;19.80;97.80;;;;;;5073258;28;20921;-78
2021/06/11 03:31:29;;;;;;;7.27;5.20;;;19.80;97.70;;;;;;5055254;28;20603;-78
2021/06/11 03:34:02;;;;;;;6.60;5.67;;;19.70;98.30;;;;;;5073231;28;20608;-78
2021/06/11 03:36:32;;;;;;;6.70;5.60;;;19.70;98.60;;;;;;5073210;28;20567;-78
2021/06/11 03:39:04;;;;;;;4.60;4.20;;;19.70;98.80;;;;;;5073305;28;21145;-77
2021/06/11 03:41:32;;;;;;;6.37;5.00;;;19.70;99.20;;;;;;5055160;28;20582;-78
2021/06/11 03:43:58;;;;;;;5.30;4.80;;;19.80;99.50;;;;;;5072735;28;20617;-78
2021/06/11 03:46:30;;;;;;;6.10;4.47;;;19.70;99.80;;;;;;5072897;28;20579;-78
2021/06/11 03:48:58;;;;;;;4.93;4.43;;;19.70;99.90;;;;;;5072983;28;20682;-78
2021/06/11 03:51:28;;;;;;;7.43;4.50;;;19.70;99.90;;;;;;5073128;28;20574;-78
2021/06/11 03:53:58;;;;;;;10.07;6.30;;;19.70;99.90;;;;;;5072804;28;20602;-78
2021/06/11 03:56:26;;;;;;;8.00;5.17;;;19.70;99.90;;;;;;5072470;28;20920;-78
2021/06/11 03:58:55;;;;;;;5.47;4.97;;;19.70;99.90;;;;;;5055163;28;20577;-81
2021/06/11 04:01:24;;;;;;;5.17;4.70;;;19.70;99.90;;;;;;5072770;28;20624;-78
2021/06/11 04:03:51;;;;;;;5.43;4.47;;;19.80;99.90;;;;;;5072790;28;20594;-78
2021/06/11 04:06:31;;;;;;;5.30;4.40;;;19.80;99.90;;;;;;5054714;28;20585;-79
2021/06/11 04:09:05;;;;;;;6.50;5.87;;;19.80;99.90;;;;;;5054562;28;20925;-79
2021/06/11 04:11:34;;;;;;;5.93;5.43;;;19.80;99.90;;;;;;5072788;28;20578;-79
2021/06/11 04:14:01;;;;;;;6.93;5.63;;;19.90;99.90;;;;;;5072426;28;20605;-78
2021/06/11 04:16:44;;;;;;;10.60;6.77;;;19.90;99.90;;;;;;5072202;28;20574;-78
2021/06/11 04:19:16;;;;;;;7.47;5.33;;;19.90;99.90;;;;;;5072272;28;20566;-78
2021/06/11 04:21:45;;;;;;;5.40;4.90;;;20.00;99.90;;;;;;5054615;28;20661;-78
2021/06/11 04:24:13;;;;;;;7.47;5.83;;;20.00;99.90;;;;;;5073182;28;20595;-79
2021/06/11 04:26:40;;;;;;;7.60;5.33;;;20.10;99.90;;;;;;5071153;28;20976;-79
2021/06/11 04:29:11;;;;;;;6.93;5.80;;;20.10;99.90;;;;;;5072380;28;20562;-79
2021/06/11 04:31:37;;;;;;;9.10;6.07;;;20.20;99.90;;;;;;5073267;28;20950;-79
2021/06/11 04:34:04;;;;;;;7.07;5.83;;;20.30;99.90;;;;;;5055773;28;20595;-78
2021/06/11 04:36:29;;;;;;;7.43;6.63;;;20.40;99.90;;;;;;5073405;28;20571;-79
2021/06/11 04:38:58;;;;;;;7.97;6.47;;;20.50;99.90;;;;;;5076980;28;20589;-79
2021/06/11 04:41:25;;;;;;;8.17;6.90;;;20.60;99.90;;;;;;5076252;28;20591;-79
2021/06/11 04:43:52;;;;;;;10.90;5.90;;;20.70;99.90;;;;;;5079099;28;20978;-79
2021/06/11 04:46:18;;;;;;;8.40;6.20;;;20.80;99.90;;;;;;5080987;28;21190;-79
2021/06/11 04:48:43;;;;;;;8.17;6.97;;;20.90;99.90;;;;;;5080571;28;20665;-79
2021/06/11 04:51:09;;;;;;;7.73;6.40;;;20.90;99.90;;;;;;5073047;28;20242;-79
2021/06/11 04:53:35;;;;;;;7.13;6.43;;;21.00;99.90;;;;;;5073804;28;20192;-78
2021/06/11 04:56:00;;;;;;;9.70;7.10;;;21.10;99.90;;;;;;5072948;28;20241;-78
2021/06/11 04:58:28;;;;;;;8.00;7.17;;;21.20;99.90;;;;;;5087501;28;20164;-77
2021/06/11 05:00:54;;;;;;;7.00;6.40;;;21.30;99.90;;;;;;5081878;28;20251;-78
2021/06/11 05:03:19;;;;;;;8.33;7.53;;;21.50;99.90;;;;;;5060727;28;20653;-77
2021/06/11 05:05:45;;;;;;;8.87;7.27;;;21.70;99.90;;;;;;5078579;28;20172;-78
2021/06/11 05:08:11;;;;;;;8.37;7.40;;;21.80;99.90;;;;;;5076283;28;20636;-78
2021/06/11 05:10:38;;;;;;;8.10;7.30;;;22.00;99.90;;;;;;5059177;28;20231;-78
2021/06/11 05:13:05;;;;;;;9.00;7.50;;;22.20;99.90;;;;;;5085429;28;20195;-78
2021/06/11 05:15:31;;;;;;;8.50;6.77;;;22.50;99.90;;;;;;5058335;28;20567;-78
2021/06/11 05:18:03;;;;;;;8.40;7.60;;;22.70;99.90;;;;;;5060856;28;20166;-77
2021/06/11 05:20:29;;;;;;;9.07;8.27;;;22.90;99.90;;;;;;5082754;28;20168;-78
2021/06/11 05:22:55;;;;;;;9.10;8.17;;;23.10;99.90;;;;;;5077083;28;20698;-78
2021/06/11 05:25:20;;;;;;;9.47;8.57;;;23.30;99.90;;;;;;5059515;28;20176;-78
2021/06/11 05:27:46;;;;;;;10.57;8.00;;;23.40;99.90;;;;;;5084032;28;20168;-78
2021/06/11 05:30:12;;;;;;;11.20;9.63;;;23.50;99.90;;;;;;5077907;28;20286;-77
2021/06/11 05:32:38;;;;;;;10.80;8.03;;;23.60;99.90;;;;;;5071445;28;20579;-77
2021/06/11 05:35:05;;;;;;;8.50;7.70;;;23.80;99.90;;;;;;5071518;28;20638;-77
2021/06/11 05:37:30;;;;;;;10.93;8.27;;;23.90;99.90;;;;;;5036618;28;20608;-77
2021/06/11 05:39:56;;;;;;;9.00;7.67;;;24.00;99.90;;;;;;5057176;28;20639;-77
2021/06/11 05:42:22;;;;;;;9.13;8.03;;;24.20;99.90;;;;;;5056999;28;20263;-77
2021/06/11 05:44:47;;;;;;;8.93;8.03;;;24.40;99.90;;;;;;5075256;28;20671;-77
2021/06/11 05:47:13;;;;;;;9.63;8.60;;;24.60;99.90;;;;;;5074745;28;20180;-76
2021/06/11 05:49:39;;;;;;;9.03;8.10;;;25.00;99.90;;;;;;5075137;28;20627;-76
2021/06/11 05:52:05;;;;;;;9.20;7.00;;;25.40;99.90;;;;;;5056977;28;20250;-76
2021/06/11 05:54:30;;;;;;;8.90;8.20;;;26.00;99.90;;;;;;5074746;28;20194;-77
2021/06/11 05:56:57;;;;;;;8.77;7.87;;;26.80;99.90;;;;;;5056607;28;20567;-77
2021/06/11 05:59:23;;;;;;;7.40;6.80;;;27.60;99.90;;;;;;5074827;28;20168;-76
2021/06/11 06:01:49;;;;;;;7.30;6.60;;;28.30;99.90;;;;;;5074765;28;20582;-76
2021/06/11 06:04:14;;;;;;;7.17;6.47;;;28.90;99.90;;;;;;5056828;28;20601;-76
2021/06/11 06:06:40;;;;;;;6.93;6.23;;;29.70;99.90;;;;;;5074457;28;20255;-76
2021/06/11 06:09:06;;;;;;;6.57;5.97;;;30.40;99.90;;;;;;5074470;28;20164;-75
2021/06/11 06:11:31;;;;;;;7.57;6.70;;;31.30;99.40;;;;;;5073065;28;20651;-77
2021/06/11 06:13:57;;;;;;;7.37;6.67;;;32.00;98.20;;;;;;5077331;28;20983;-77
2021/06/11 06:16:23;;;;;;;6.40;5.80;;;32.80;96.90;;;;;;5073816;28;20170;-77
2021/06/11 06:18:49;;;;;;;6.13;5.63;;;33.50;95.70;;;;;;5074091;28;20499;-77
2021/06/11 06:21:14;;;;;;;6.33;5.73;;;34.20;94.40;;;;;;5074245;28;20820;-77
2021/06/11 06:23:40;;;;;;;5.87;5.27;;;34.80;92.90;;;;;;5073443;28;20256;-77
2021/06/11 06:26:06;;;;;;;6.97;6.40;;;35.50;91.60;;;;;;5073429;28;20172;-77
2021/06/11 06:28:32;;;;;;;6.37;5.83;;;36.10;89.70;;;;;;5073531;28;20597;-77
2021/06/11 06:30:58;;;;;;;7.27;6.57;;;36.60;85.00;;;;;;5073783;28;20638;-77
2021/06/11 06:33:23;;;;;;;9.67;6.23;;;37.00;82.50;;;;;;5073695;28;20222;-77
2021/06/11 06:35:49;;;;;;;6.07;5.40;;;37.40;80.00;;;;;;5073299;28;20172;-77
2021/06/11 06:38:15;;;;;;;7.87;7.17;;;37.80;77.70;;;;;;5055330;28;20177;-77
2021/06/11 06:40:42;;;;;;;8.67;5.77;;;38.30;74.60;;;;;;5073990;28;20173;-77
2021/06/11 06:43:08;;;;;;;7.30;6.50;;;38.50;72.30;;;;;;5054986;28;20211;-77
2021/06/11 06:45:34;;;;;;;7.13;6.63;;;38.80;70.20;;;;;;5073124;28;20586;-77
2021/06/11 06:48:01;;;;;;;7.10;6.60;;;39.10;68.50;;;;;;5073104;28;20632;-77
2021/06/11 06:50:26;;;;;;;5.60;5.10;;;39.40;66.50;;;;;;5072365;28;20200;-77
2021/06/11 06:52:56;;;;;;;7.00;6.30;;;39.70;65.00;;;;;;5073633;28;20609;-77
2021/06/11 06:55:25;;;;;;;6.77;6.23;;;40.10;63.30;;;;;;5073002;28;20180;-77
2021/06/11 06:57:51;;;;;;;7.03;6.30;;;40.40;61.10;;;;;;5072870;28;20655;-77
2021/06/11 07:00:17;;;;;;;7.83;7.10;;;40.70;59.80;;;;;;5073683;28;20574;-77
2021/06/11 07:02:43;;;;;;;7.70;6.77;;;41.00;58.70;;;;;;5073006;28;20283;-77
2021/06/11 07:05:09;;;;;;;7.47;6.87;;;41.20;57.50;;;;;;5073480;28;20571;-77
2021/06/11 07:07:35;;;;;;;8.00;6.27;;;41.40;56.50;;;;;;5055260;28;20666;-76
2021/06/11 07:10:01;;;;;;;6.70;6.10;;;41.50;55.50;;;;;;5073529;28;20709;-77
2021/06/11 07:12:27;;;;;;;8.07;7.27;;;41.60;54.70;;;;;;5073378;28;20194;-77
2021/06/11 07:14:53;;;;;;;9.53;6.00;;;41.80;54.20;;;;;;5073518;28;20202;-75
2021/06/11 07:17:19;;;;;;;7.60;7.00;;;41.90;53.50;;;;;;5073045;28;20570;-74
2021/06/11 07:19:45;;;;;;;7.47;6.77;;;42.00;52.30;;;;;;5055287;28;20583;-77
2021/06/11 07:22:11;;;;;;;6.33;5.60;;;42.00;51.70;;;;;;5073516;28;20547;-77
2021/06/11 07:24:37;;;;;;;6.90;6.30;;;42.00;51.30;;;;;;5073183;28;20196;-77
2021/06/11 07:27:04;;;;;;;6.87;6.37;;;42.20;50.70;;;;;;5101186;22;21249;-80
2021/06/11 07:29:30;;;;;;;6.40;5.87;;;42.20;50.00;;;;;;5084739;28;20626;-80
2021/06/11 07:32:04;;;;;;;6.60;6.00;;;42.20;49.80;;;;;;5075540;28;20902;-80
2021/06/11 07:34:29;;;;;;;6.37;5.87;;;42.30;49.50;;;;;;5075390;28;20172;-79
2021/06/11 07:36:55;;;;;;;6.77;6.27;;;42.30;49.00;;;;;;5093840;28;20685;-79
2021/06/11 07:39:21;;;;;;;6.23;5.73;;;42.30;48.50;;;;;;5093133;28;20167;-79
2021/06/11 07:41:49;;;;;;;6.60;5.87;;;42.30;48.20;;;;;;5075015;28;20250;-79
2021/06/11 07:44:15;;;;;;;6.40;5.80;;;42.30;48.00;;;;;;5075031;28;20206;-79
2021/06/11 07:46:40;;;;;;;7.00;6.40;;;42.50;48.40;;;;;;5074949;28;20601;-79
2021/06/11 07:49:26;;;;;;;5.90;5.40;;;42.60;48.20;;;;;;5074861;28;20167;-80
2021/06/11 07:51:57;;;;;;;6.07;5.57;;;42.80;48.20;;;;;;5093003;28;20168;-80
2021/06/11 07:54:23;;;;;;;6.50;6.00;;;42.90;47.70;;;;;;5074607;28;20638;-80
2021/06/11 07:56:59;;;;;;;6.30;5.70;;;43.10;47.50;;;;;;5072019;28;21252;-79
2021/06/11 07:59:29;;;;;;;8.47;6.87;;;43.20;47.10;;;;;;5074288;28;20627;-80
2021/06/11 08:01:54;;;;;;;7.37;6.10;;;43.30;46.60;;;;;;5074036;28;20570;-79
2021/06/11 08:04:20;;;;;;;6.90;6.30;;;43.40;46.20;;;;;;5092865;28;20889;-80
2021/06/11 08:06:47;;;;;;;6.93;5.73;;;43.50;45.70;;;;;;5074404;28;20537;-79
2021/06/11 08:09:13;;;;;;;6.13;5.63;;;43.60;45.50;;;;;;5074350;28;20667;-79
2021/06/11 08:11:39;;;;;;;6.70;6.10;;;43.60;45.30;;;;;;5074579;28;20983;-79
2021/06/11 08:14:07;;;;;;;5.77;5.27;;;43.70;44.60;;;;;;5059173;28;20601;-79
2021/06/11 08:16:33;;;;;;;6.50;4.90;;;43.80;44.60;;;;;;5073757;28;20604;-80
2021/06/11 08:18:59;;;;;;;7.27;5.80;;;43.80;44.40;;;;;;5092545;28;20194;-78
2021/06/11 08:21:25;;;;;;;6.03;5.53;;;43.90;44.20;;;;;;5092566;28;20643;-80
2021/06/11 08:23:51;;;;;;;5.30;4.90;;;44.10;44.20;;;;;;5075776;28;20187;-80
2021/06/11 08:26:17;;;;;;;6.20;5.30;;;44.10;43.80;;;;;;5057619;28;20578;-79
2021/06/11 08:28:43;;;;;;;6.03;4.67;;;44.20;43.10;;;;;;5074198;28;20708;-79
2021/06/11 08:31:09;;;;;;;4.90;4.20;;;44.30;43.00;;;;;;5092360;28;20167;-80
2021/06/11 08:33:36;;;;;;;6.50;5.40;;;44.40;43.20;;;;;;5074273;28;20186;-79
2021/06/11 08:36:07;;;;;;;5.30;4.87;;;44.50;42.70;;;;;;5092245;28;20578;-80
2021/06/11 08:38:33;;;;;;;5.57;4.87;;;44.60;42.50;;;;;;5092171;28;20191;-80
2021/06/11 08:41:03;;;;;;;5.43;4.93;;;44.60;42.00;;;;;;5074636;28;21029;-81
2021/06/11 08:43:32;;;;;;;5.40;5.00;;;44.60;41.70;;;;;;5092249;28;20575;-79
2021/06/11 08:46:23;;;;;;;5.90;5.40;;;44.70;41.20;;;;;;5074097;28;20936;-79
2021/06/11 08:49:01;;;;;;;5.50;5.00;;;44.80;40.90;;;;;;5092057;28;20577;-78
2021/06/11 08:51:52;;;;;;;4.90;4.50;;;44.70;40.80;;;;;;5092391;28;20962;-78
2021/06/11 08:54:28;;;;;;;5.23;4.73;;;44.60;40.00;;;;;;5074177;28;21131;-79
2021/06/11 08:56:57;;;;;;;9.73;6.87;;;44.60;40.20;;;;;;5056785;28;20625;-78
2021/06/11 08:59:23;;;;;;;6.47;5.90;;;44.40;39.70;;;;;;5073756;28;21008;-79
2021/06/11 09:01:52;;;;;;;5.63;5.13;;;44.30;39.80;;;;;;5091702;28;20740;-78
2021/06/11 09:04:41;;;;;;;5.53;5.07;;;44.20;40.00;;;;;;5091720;28;20164;-78
2021/06/11 09:07:30;;;;;;;6.00;5.50;;;44.20;40.00;;;;;;5091239;28;20594;-79
2021/06/11 09:10:00;;;;;;;4.77;4.30;;;44.10;40.00;;;;;;5073808;28;20562;-79
2021/06/11 09:12:35;;;;;;;5.97;5.37;;;43.90;40.30;;;;;;5073371;28;20611;-79
2021/06/11 09:15:15;;;;;;;5.07;4.60;;;43.70;39.90;;;;;;5092161;28;20570;-79
2021/06/11 09:17:47;;;;;;;5.97;5.47;;;43.50;40.00;;;;;;5092250;28;20597;-79
2021/06/11 09:20:24;;;;;;;6.00;5.30;;;43.40;39.80;;;;;;5073395;28;20622;-79
2021/06/11 09:22:52;;;;;;;6.50;5.60;;;43.40;40.20;;;;;;5091615;28;20572;-79
2021/06/11 09:25:28;;;;;;;5.77;5.17;;;43.40;40.20;;;;;;5091792;28;20639;-77
2021/06/11 09:28:16;;;;;;;7.03;6.33;;;43.40;40.10;;;;;;5072998;28;20969;-78
2021/06/11 09:30:41;;;;;;;6.80;5.90;;;43.50;40.60;;;;;;5091644;28;20574;-79
2021/06/11 09:33:12;;;;;;;5.93;5.43;;;43.50;40.00;;;;;;5092013;28;21133;-81
2021/06/11 09:35:52;;;;;;;6.60;6.00;;;43.50;39.90;;;;;;5091992;28;20172;-80
2021/06/11 09:38:25;;;;;;;4.80;4.40;;;43.50;39.80;;;;;;5081744;28;20750;-80
2021/06/11 09:40:57;;;;;;;5.40;5.00;;;43.50;40.40;;;;;;5073840;28;20720;-80
2021/06/11 09:43:24;;;;;;;6.00;5.43;;;43.60;40.10;;;;;;5074288;28;20566;-80
2021/06/11 09:46:10;;;;;;;5.10;4.67;;;43.70;40.20;;;;;;5073950;28;20585;-81
2021/06/11 09:48:48;;;;;;;6.60;5.00;;;43.80;40.00;;;;;;5073486;28;20960;-79
2021/06/11 09:51:15;;;;;;;6.57;5.97;;;43.90;39.40;;;;;;5091635;28;20563;-80
2021/06/11 09:53:41;;;;;;;6.87;5.60;;;44.00;38.90;;;;;;5092157;28;20566;-80
2021/06/11 09:56:18;;;;;;;5.80;5.20;;;43.90;38.90;;;;;;5058312;28;20917;-81
2021/06/11 09:58:44;;;;;;;6.93;5.70;;;43.90;39.20;;;;;;5092391;28;20187;-82
2021/06/11 10:01:11;;;;;;;6.33;5.73;;;43.90;38.80;;;;;;5091574;28;20963;-83
2021/06/11 10:03:39;;;;;;;6.77;5.33;;;43.80;38.50;;;;;;5093003;28;20166;-81
2021/06/11 10:06:07;;;;;;;6.20;5.33;;;43.70;38.30;;;;;;5073497;28;20639;-83
2021/06/11 10:08:33;;;;;;;5.57;4.90;;;43.70;38.80;;;;;;5092153;28;20616;-83
2021/06/11 10:11:04;;;;;;;6.60;6.00;;;43.70;38.90;;;;;;5093553;28;20573;-84
2021/06/11 10:13:34;;;;;;;4.37;4.07;;;43.70;38.80;;;;;;5075949;28;20672;-84
2021/06/11 10:16:08;;;;;;;4.77;4.37;;;43.70;39.20;;;;;;5076669;28;20620;-80
2021/06/11 10:18:35;;;;;;;5.23;3.90;;;43.50;38.40;;;;;;5073459;28;21206;-79
2021/06/11 10:21:01;;;;;;;4.30;3.90;;;43.30;39.10;;;;;;5073217;28;20675;-79
2021/06/11 10:23:29;;;;;;;4.03;3.60;;;43.20;38.90;;;;;;5073066;28;20561;-80
2021/06/11 10:26:02;;;;;;;7.70;3.60;;;43.30;39.10;;;;;;5075322;28;20660;-79
2021/06/11 10:28:44;;;;;;;4.60;4.20;;;43.10;38.70;;;;;;5076189;28;20624;-79
2021/06/11 10:31:19;;;;;;;2.70;2.50;;;42.50;38.00;;;;;;5100669;28;20594;-79
2021/06/11 10:33:45;;;;;;;3.10;2.80;;;42.00;38.30;;;;;;5095865;28;20569;-79
2021/06/11 10:36:30;;;;;;;3.77;3.43;;;41.80;38.90;;;;;;5104401;28;20649;-78
2021/06/11 10:39:11;;;;;;;5.43;4.67;;;41.80;40.00;;;;;;5107797;28;20197;-81
2021/06/11 10:42:11;;;;;;;4.00;3.70;;;41.90;39.50;;;;;;5095512;28;20588;-82
2021/06/11 10:44:50;;;;;;;5.30;3.20;;;41.80;39.60;;;;;;5076386;28;20566;-82
2021/06/11 10:47:16;;;;;;;3.57;3.27;;;41.70;39.60;;;;;;5079973;28;20609;-83
2021/06/11 10:50:07;;;;;;;5.27;2.93;;;41.20;38.80;;;;;;5085588;28;20607;-81
2021/06/11 10:52:50;;;;;;;3.77;2.03;;;40.60;38.80;;;;;;5094445;28;20176;-81
2021/06/11 10:55:19;;;;;;;4.77;2.70;;;40.20;39.60;;;;;;5094891;28;20667;-81
2021/06/11 10:58:07;;;;;;;3.67;3.43;;;40.00;40.10;;;;;;5094095;28;20999;-81
2021/06/11 11:00:35;;;;;;;4.63;3.10;;;39.80;40.30;;;;;;5075738;28;20753;-81
2021/06/11 11:03:03;;;;;;;4.13;3.63;;;39.70;40.20;;;;;;5094987;28;20563;-80
2021/06/11 11:05:30;;;;;;;3.00;2.53;;;39.40;39.70;;;;;;5077020;28;20677;-81
2021/06/11 11:07:56;;;;;;;5.37;3.47;;;39.10;40.20;;;;;;5075123;28;20601;-80
2021/06/11 11:10:47;;;;;;;3.90;3.10;;;39.00;40.70;;;;;;5095515;28;20684;-81
2021/06/11 11:13:27;;;;;;;3.10;2.80;;;38.90;41.30;;;;;;5075802;28;20657;-81
2021/06/11 11:15:57;;;;;;;3.83;3.30;;;38.90;41.20;;;;;;5076425;28;20630;-81
2021/06/11 11:18:32;;;;;;;5.03;3.10;;;38.70;40.90;;;;;;5079320;28;20605;-81
2021/06/11 11:20:59;;;;;;;3.57;3.17;;;38.30;41.00;;;;;;5063386;28;20678;-80
2021/06/11 11:23:27;;;;;;;2.83;2.53;;;37.70;40.80;;;;;;5079873;28;21135;-80
2021/06/11 11:25:57;;;;;;;4.17;2.67;;;37.40;42.10;;;;;;5080483;28;20595;-79
2021/06/11 11:28:22;;;;;;;3.10;2.80;;;37.30;42.40;;;;;;5096479;28;20647;-80
2021/06/11 11:30:51;;;;;;;5.27;3.30;;;37.30;42.90;;;;;;5080570;28;20573;-81
2021/06/11 11:33:17;;;;;;;6.20;3.60;;;37.30;42.60;;;;;;5078832;28;20189;-79
2021/06/11 11:35:50;;;;;;;3.53;2.10;;;37.30;42.60;;;;;;5097363;28;20578;-81
2021/06/11 11:38:16;;;;;;;4.33;2.97;;;37.20;42.80;;;;;;5098864;28;20191;-81
2021/06/11 11:41:19;;;;;;;5.87;3.30;;;37.00;42.20;;;;;;5097018;28;20632;-81
2021/06/11 11:43:49;;;;;;;3.30;2.30;;;36.90;43.00;;;;;;4991004;28;20182;-83
2021/06/11 11:46:16;;;;;;;6.63;3.30;;;36.90;43.30;;;;;;5067854;28;20578;-82
2021/06/11 11:48:44;;;;;;;2.50;2.30;;;36.90;43.50;;;;;;5091980;28;20662;-80
2021/06/11 11:51:10;;;;;;;5.30;3.23;;;36.90;43.40;;;;;;5075019;28;20576;-79
2021/06/11 11:53:36;;;;;;;3.70;3.00;;;36.90;43.10;;;;;;5093033;28;20561;-79
2021/06/11 11:56:05;;;;;;;3.23;2.93;;;36.70;42.90;;;;;;5074810;28;20222;-79
2021/06/11 11:58:37;;;;;;;3.33;2.47;;;36.50;42.60;;;;;;5092554;28;20280;-80
2021/06/11 12:01:39;;;;;;;3.97;2.73;;;36.30;43.00;;;;;;5074537;28;20620;-79
2021/06/11 12:04:05;;;;;;;3.47;2.80;;;36.10;43.50;;;;;;4974643;28;20604;-79
2021/06/11 12:06:39;;;;;;;3.30;2.67;;;36.00;43.70;;;;;;5056098;28;20609;-79
2021/06/11 12:09:05;;;;;;;3.40;2.30;;;35.90;44.20;;;;;;5074517;28;20607;-79
2021/06/11 12:11:31;;;;;;;2.13;1.83;;;35.80;44.30;;;;;;5074287;28;20573;-78
2021/06/11 12:13:57;;;;;;;2.60;1.70;;;35.70;44.60;;;;;;5092582;28;20582;-79
2021/06/11 12:16:23;;;;;;;3.20;2.20;;;35.70;44.70;;;;;;5092255;28;20173;-80
2021/06/11 12:18:49;;;;;;;3.67;1.93;;;35.60;44.60;;;;;;5092455;28;20198;-78
2021/06/11 12:21:15;;;;;;;16.20;3.80;;;35.60;45.30;;;;;;5092404;28;20534;-79
2021/06/11 12:23:41;;;;;;;4.60;2.27;;;35.50;44.80;;;;;;5092517;28;20163;-79
2021/06/11 12:26:06;;;;;;;2.97;2.13;;;35.50;45.00;;;;;;5092314;28;20565;-79
2021/06/11 12:28:32;;;;;;;2.73;2.50;;;35.50;45.40;;;;;;5073829;28;20665;-80
2021/06/11 12:31:01;;;;;;;2.60;2.40;;;35.40;45.20;;;;;;5074234;28;20171;-79
2021/06/11 12:33:27;;;;;;;4.07;2.63;;;35.40;45.00;;;;;;5073926;28;20676;-79
2021/06/11 12:35:53;;;;;;;3.43;2.27;;;35.30;45.10;;;;;;5092119;28;20599;-80
2021/06/11 12:38:19;;;;;;;3.27;2.70;;;35.20;45.20;;;;;;5091718;28;20710;-80
2021/06/11 12:40:45;;;;;;;2.63;2.07;;;35.10;45.20;;;;;;5091800;28;20612;-80
2021/06/11 12:43:15;;;;;;;2.80;2.23;;;35.00;45.10;;;;;;5091983;28;20163;-79
2021/06/11 12:45:42;;;;;;;3.90;2.30;;;34.80;44.80;;;;;;5091895;28;20565;-79
2021/06/11 12:48:11;;;;;;;4.33;2.80;;;34.50;44.80;;;;;;5090769;28;20583;-79
2021/06/11 12:50:38;;;;;;;3.90;2.77;;;34.40;44.90;;;;;;5092430;28;20566;-83
2021/06/11 12:53:04;;;;;;;5.23;2.60;;;34.10;44.80;;;;;;5092470;28;20586;-83
2021/06/11 12:55:31;;;;;;;2.93;2.50;;;33.80;45.10;;;;;;5057577;28;20569;-83